Time;durP1;ratioP1;P1;durP2;ratioP2;P2;SDS_P1;SDS_P2;PMS_P1;PMS_P2;Temp;Humidity;BMP_temperature;BMP_pressure;BME280_temperature;BME280_humidity;BME280_pressure;Samples;Min_cycle;Max_cycle;Signal;HPM_P1;HPM_P2
2022/02/05 00:01:53;;;;;;;29.08;6.38;;;10.00;92.40;;;;;;6236200;23;20007;-65
2022/02/05 00:04:20;;;;;;;27.92;6.35;;;9.90;92.10;;;;;;6237028;23;20000;-59
2022/02/05 00:06:50;;;;;;;27.58;6.30;;;9.90;92.30;;;;;;6211266;23;20008;-63
2022/02/05 00:09:31;;;;;;;20.23;6.18;;;9.90;92.20;;;;;;6237152;23;20031;-62
2022/02/05 00:33:16;;;;;;;15.02;4.70;;;9.80;92.40;;;;;;6234929;23;20077;-64
2022/02/05 00:39:48;;;;;;;23.88;5.07;;;9.80;92.60;;;;;;6210516;23;20023;-60
2022/02/05 00:42:29;;;;;;;16.38;5.05;;;9.70;92.70;;;;;;6235817;23;20000;-61
2022/02/05 00:44:55;;;;;;;13.90;4.75;;;9.80;92.70;;;;;;6212927;23;20004;-62
2022/02/05 00:47:21;;;;;;;15.18;4.40;;;9.80;92.70;;;;;;6235183;23;20158;-60
2022/02/05 00:49:51;;;;;;;19.98;4.88;;;9.80;92.80;;;;;;6234713;23;20000;-63
2022/02/05 00:52:18;;;;;;;13.52;3.95;;;9.80;92.80;;;;;;6208177;23;20091;-62
2022/02/05 00:54:48;;;;;;;19.10;4.72;;;9.80;92.80;;;;;;6207572;23;20003;-65
2022/02/05 00:59:54;;;;;;;15.30;4.28;;;9.70;92.90;;;;;;6212347;23;20038;-63
2022/02/05 01:02:20;;;;;;;20.10;4.43;;;9.70;93.00;;;;;;6234834;23;20287;-61
2022/02/05 01:04:45;;;;;;;15.40;4.40;;;9.70;93.00;;;;;;6206379;23;20354;-66
2022/02/05 01:07:11;;;;;;;16.58;4.47;;;9.70;93.10;;;;;;6207943;23;20252;-63
2022/02/05 01:09:37;;;;;;;11.75;4.60;;;9.70;93.10;;;;;;6235815;23;20077;-64
2022/02/05 01:12:03;;;;;;;13.50;4.90;;;9.70;93.10;;;;;;6236356;23;20019;-63
2022/02/05 01:14:33;;;;;;;16.30;5.15;;;9.70;93.10;;;;;;6182095;23;20012;-62
2022/02/05 01:17:04;;;;;;;14.70;4.40;;;9.70;93.20;;;;;;6234463;23;20011;-62
2022/02/05 01:19:57;;;;;;;12.73;3.42;;;9.70;93.20;;;;;;6207767;23;20000;-61
2022/02/05 01:22:16;;;;;;;15.65;3.92;;;9.70;93.30;;;;;;6212926;23;20011;-62
2022/02/05 01:24:44;;;;;;;13.68;4.60;;;9.60;93.30;;;;;;6235167;23;20092;-62
2022/02/05 01:27:14;;;;;;;15.15;4.75;;;9.60;93.30;;;;;;6207484;23;20011;-60
2022/02/05 01:30:05;;;;;;;15.02;5.07;;;9.60;93.40;;;;;;6233158;23;20464;-62
2022/02/05 01:32:33;;;;;;;13.00;4.45;;;9.60;93.40;;;;;;6206094;23;20008;-63
2022/02/05 01:35:13;;;;;;;14.45;4.80;;;9.60;93.30;;;;;;6183886;23;20073;-64
2022/02/05 01:56:25;;;;;;;14.88;4.10;;;9.60;93.70;;;;;;6206541;23;20026;-63
2022/02/05 02:12:15;;;;;;;6.75;3.30;;;9.60;93.70;;;;;;6234130;23;20019;-63
2022/02/05 02:14:59;;;;;;;11.20;2.90;;;9.60;93.70;;;;;;6235550;23;20000;-61
2022/02/05 02:20:36;;;;;;;7.72;2.97;;;9.60;93.70;;;;;;6233376;23;20485;-61
2022/02/05 02:23:14;;;;;;;10.23;2.88;;;9.60;93.70;;;;;;6212107;23;20004;-64
2022/02/05 02:28:51;;;;;;;10.88;2.92;;;9.50;93.80;;;;;;6192600;23;20027;-62
2022/02/05 02:31:22;;;;;;;9.10;2.70;;;9.50;93.70;;;;;;6214113;23;20001;-62
2022/02/05 02:33:51;;;;;;;8.15;2.85;;;9.50;94.10;;;;;;6236119;23;20012;-63
2022/02/05 02:36:29;;;;;;;7.72;2.80;;;9.50;93.80;;;;;;6209999;23;20322;-62
2022/02/05 02:39:00;;;;;;;4.80;2.15;;;9.50;93.80;;;;;;6185390;23;20008;-60
2022/02/05 02:41:32;;;;;;;7.22;2.72;;;9.50;93.70;;;;;;6211781;23;20001;-59
2022/02/05 02:43:57;;;;;;;5.85;2.40;;;9.50;93.70;;;;;;6210290;23;20000;-65
2022/02/05 02:46:23;;;;;;;5.07;2.67;;;9.50;93.70;;;;;;6237347;23;20011;-63
2022/02/05 02:48:50;;;;;;;7.28;2.65;;;9.40;93.70;;;;;;6235576;23;20027;-59
2022/02/05 02:57:30;;;;;;;4.30;1.98;;;9.40;93.60;;;;;;6237602;23;20237;-62
2022/02/05 02:59:37;;;;;;;9.80;2.30;;;9.40;93.60;;;;;;6217541;23;20012;-63
2022/02/05 03:02:11;;;;;;;6.93;1.92;;;9.40;93.50;;;;;;6210151;23;20011;-64
2022/02/05 03:04:37;;;;;;;4.53;2.30;;;9.40;93.60;;;;;;6209972;23;20008;-65
2022/02/05 03:07:03;;;;;;;6.05;2.38;;;9.40;93.60;;;;;;6210320;23;20027;-62
2022/02/05 03:09:29;;;;;;;5.63;2.70;;;9.40;93.50;;;;;;6210450;23;20000;-63
2022/02/05 03:11:54;;;;;;;6.85;2.65;;;9.30;93.50;;;;;;6235936;23;20079;-64
2022/02/05 03:14:20;;;;;;;5.18;1.83;;;9.30;93.40;;;;;;6207859;23;20028;-63
2022/02/05 03:16:50;;;;;;;5.30;2.35;;;9.30;93.40;;;;;;6234784;23;20415;-65
2022/02/05 03:19:16;;;;;;;4.93;2.55;;;9.30;93.40;;;;;;6235419;23;19996;-64
2022/02/05 03:21:42;;;;;;;5.13;2.30;;;9.30;93.40;;;;;;6209056;23;20000;-62
2022/02/05 03:24:08;;;;;;;4.53;1.90;;;9.30;93.20;;;;;;6183139;23;20011;-62
2022/02/05 03:26:35;;;;;;;4.05;1.88;;;9.30;93.20;;;;;;6207643;23;20404;-64
2022/02/05 03:29:01;;;;;;;6.45;2.15;;;9.20;93.10;;;;;;6234172;23;20008;-64
2022/02/05 03:31:27;;;;;;;4.30;1.90;;;9.20;93.20;;;;;;6235632;23;20081;-62
2022/02/05 03:33:52;;;;;;;2.88;1.88;;;9.20;93.20;;;;;;6236202;23;20004;-61
2022/02/05 03:36:18;;;;;;;5.68;2.22;;;9.20;93.20;;;;;;6236721;23;20509;-62
2022/02/05 03:38:43;;;;;;;4.25;1.92;;;9.10;93.10;;;;;;6233924;23;20111;-61
2022/02/05 03:41:09;;;;;;;10.73;2.40;;;9.20;93.10;;;;;;6182816;23;20027;-59
2022/02/05 03:43:34;;;;;;;4.10;1.83;;;9.20;93.10;;;;;;6183134;23;20031;-62
2022/02/05 03:46:00;;;;;;;5.88;2.10;;;9.20;93.00;;;;;;6236533;23;20004;-63
2022/02/05 03:48:25;;;;;;;6.45;2.95;;;9.20;93.00;;;;;;6235931;23;20015;-64
2022/02/05 03:50:51;;;;;;;5.72;3.03;;;9.10;92.90;;;;;;6235029;23;20009;-62
2022/02/05 03:53:17;;;;;;;8.25;3.20;;;9.10;93.00;;;;;;6207046;23;20031;-63
2022/02/05 03:55:46;;;;;;;6.57;2.70;;;9.20;93.00;;;;;;6233464;23;20113;-60
2022/02/05 03:58:11;;;;;;;5.25;2.85;;;9.10;92.90;;;;;;6184945;23;20011;-62
2022/02/05 04:00:37;;;;;;;5.78;2.30;;;9.10;92.90;;;;;;6236304;23;20054;-61
2022/02/05 04:03:02;;;;;;;5.07;2.75;;;9.10;92.80;;;;;;6182973;23;20341;-59
2022/02/05 04:05:28;;;;;;;4.88;2.70;;;9.10;92.80;;;;;;6206790;23;20497;-64
2022/02/05 04:07:55;;;;;;;5.20;2.40;;;9.10;92.80;;;;;;6233689;23;20004;-59
2022/02/05 04:10:27;;;;;;;4.90;2.40;;;9.10;92.90;;;;;;6207521;23;20011;-61
2022/02/05 04:15:58;;;;;;;3.40;2.10;;;9.00;92.60;;;;;;6235573;23;20058;-63
2022/02/05 04:18:24;;;;;;;3.67;2.28;;;9.00;92.60;;;;;;6233732;23;20357;-62
2022/02/05 04:20:50;;;;;;;4.30;2.13;;;9.00;92.50;;;;;;6233773;23;20101;-62
2022/02/05 04:23:15;;;;;;;4.63;2.40;;;9.00;92.50;;;;;;6234071;23;20472;-65
2022/02/05 04:25:41;;;;;;;4.78;2.10;;;9.00;92.50;;;;;;6208702;23;20453;-61
2022/02/05 04:28:07;;;;;;;4.00;2.20;;;8.90;92.60;;;;;;6208795;23;20004;-64
2022/02/05 04:30:32;;;;;;;5.28;2.13;;;8.90;92.60;;;;;;6207661;23;20015;-64
2022/02/05 04:32:58;;;;;;;2.83;2.28;;;8.90;92.50;;;;;;6233856;23;20172;-61
2022/02/05 04:35:23;;;;;;;3.67;2.10;;;8.90;92.50;;;;;;6207191;23;20011;-62
2022/02/05 04:37:54;;;;;;;4.93;2.40;;;8.90;92.60;;;;;;6209357;23;20008;-62
2022/02/05 04:40:29;;;;;;;3.50;2.00;;;8.90;92.60;;;;;;6210243;23;20444;-63
2022/02/05 04:51:15;;;;;;;5.43;2.70;;;8.90;92.50;;;;;;6209488;23;20384;-64
2022/02/05 04:59:09;;;;;;;5.88;2.60;;;8.90;92.50;;;;;;6233091;23;20012;-61
2022/02/05 05:09:58;;;;;;;5.60;2.45;;;8.90;92.50;;;;;;6234211;23;20030;-61
2022/02/05 05:12:24;;;;;;;4.85;2.60;;;8.90;92.50;;;;;;6233067;23;20032;-61
2022/02/05 05:20:18;;;;;;;10.70;2.95;;;8.80;92.40;;;;;;6212658;23;20485;-60
2022/02/05 05:22:43;;;;;;;7.75;2.40;;;8.80;92.30;;;;;;6233789;23;20402;-62
2022/02/05 05:25:09;;;;;;;10.68;2.88;;;8.80;92.40;;;;;;6233379;23;20000;-62
2022/02/05 05:27:34;;;;;;;8.10;2.40;;;8.80;92.40;;;;;;6206604;23;20004;-61
2022/02/05 05:30:00;;;;;;;6.50;2.17;;;8.80;92.40;;;;;;6207859;23;20039;-63
2022/02/05 05:32:26;;;;;;;8.60;2.85;;;8.80;92.40;;;;;;6235586;23;20000;-62
2022/02/05 05:34:51;;;;;;;9.55;2.53;;;8.80;92.30;;;;;;6207329;23;20015;-60
2022/02/05 05:37:19;;;;;;;9.27;2.53;;;8.80;92.30;;;;;;6206686;23;20004;-63
2022/02/05 05:39:46;;;;;;;13.80;2.47;;;8.70;92.30;;;;;;6233373;23;20103;-61
2022/02/05 05:42:16;;;;;;;6.05;2.58;;;8.70;92.30;;;;;;6182884;23;20011;-60
2022/02/05 05:47:35;;;;;;;5.93;2.30;;;8.70;92.20;;;;;;6234862;23;20008;-62
2022/02/05 05:50:08;;;;;;;5.45;2.55;;;8.70;92.20;;;;;;6210132;23;20000;-61
2022/02/05 05:52:34;;;;;;;5.88;2.28;;;8.70;92.10;;;;;;6208220;23;20433;-63
2022/02/05 05:54:59;;;;;;;10.18;2.58;;;8.70;92.10;;;;;;6207074;23;20051;-64
2022/02/05 05:57:25;;;;;;;7.43;2.20;;;8.70;92.10;;;;;;6235137;23;20017;-62
2022/02/05 05:59:51;;;;;;;4.93;2.22;;;8.60;92.10;;;;;;6233938;23;20003;-62
2022/02/05 06:02:16;;;;;;;6.03;2.40;;;8.60;92.10;;;;;;6207265;23;20067;-61
2022/02/05 06:04:42;;;;;;;7.13;2.50;;;8.60;92.10;;;;;;6235116;23;20363;-62
2022/02/05 06:07:07;;;;;;;6.38;2.80;;;8.60;92.20;;;;;;6233882;23;20472;-63
2022/02/05 06:09:40;;;;;;;6.40;2.90;;;8.60;92.10;;;;;;6235805;23;20087;-62
2022/02/05 06:12:06;;;;;;;9.68;3.28;;;8.60;92.00;;;;;;6235601;23;20004;-59
2022/02/05 06:14:32;;;;;;;10.32;3.38;;;8.60;92.00;;;;;;6236070;23;20004;-64
2022/02/05 06:17:04;;;;;;;5.20;2.88;;;8.60;92.00;;;;;;6234886;23;20062;-62
2022/02/05 06:19:30;;;;;;;5.93;2.80;;;8.60;92.10;;;;;;6210173;23;20008;-60
2022/02/05 06:21:55;;;;;;;6.00;2.90;;;8.50;92.00;;;;;;6236626;23;20091;-64
2022/02/05 06:24:21;;;;;;;10.65;2.63;;;8.60;92.10;;;;;;6237321;23;20019;-61
2022/02/05 06:26:46;;;;;;;8.30;2.97;;;8.50;92.00;;;;;;6237028;23;20000;-61
2022/02/05 06:29:12;;;;;;;9.40;2.63;;;8.50;92.10;;;;;;6207733;23;20012;-61
2022/02/05 06:31:38;;;;;;;9.00;2.83;;;8.50;92.10;;;;;;6208554;23;20512;-61
2022/02/05 06:34:03;;;;;;;7.43;2.58;;;8.50;92.10;;;;;;6208296;23;20004;-63
2022/02/05 06:36:29;;;;;;;5.57;2.58;;;8.50;92.00;;;;;;6237718;23;20079;-63
2022/02/05 06:38:54;;;;;;;6.80;2.53;;;8.50;91.90;;;;;;6235887;23;20592;-61
2022/02/05 06:41:20;;;;;;;9.27;2.90;;;8.50;91.90;;;;;;6208952;23;20035;-64
2022/02/05 06:43:45;;;;;;;6.00;2.75;;;8.50;91.90;;;;;;6205235;23;20032;-63
2022/02/05 06:46:11;;;;;;;7.95;2.30;;;8.50;91.90;;;;;;6208850;23;20080;-61
2022/02/05 06:48:36;;;;;;;4.22;2.40;;;8.40;91.90;;;;;;6236604;23;20009;-61
2022/02/05 06:51:02;;;;;;;16.25;4.05;;;8.40;91.80;;;;;;6237477;23;20392;-62
2022/02/05 06:53:27;;;;;;;36.33;3.72;;;8.40;92.10;;;;;;6208054;23;20096;-62
2022/02/05 06:55:53;;;;;;;38.83;4.32;;;8.40;91.80;;;;;;6208354;23;20148;-60
2022/02/05 06:58:18;;;;;;;75.03;7.28;;;8.50;91.80;;;;;;6234582;23;20098;-64
2022/02/05 07:00:44;;;;;;;73.28;8.43;;;8.40;91.80;;;;;;6236506;23;20082;-61
2022/02/05 07:03:11;;;;;;;65.68;7.80;;;8.40;91.80;;;;;;6237162;23;20079;-63
2022/02/05 07:05:37;;;;;;;60.35;5.90;;;8.30;91.80;;;;;;6236043;23;20015;-62
2022/02/05 07:08:04;;;;;;;50.50;5.55;;;8.30;91.90;;;;;;6232275;23;20357;-61
2022/02/05 07:10:30;;;;;;;50.22;6.60;;;8.30;91.90;;;;;;6234557;23;20080;-65
2022/02/05 07:15:25;;;;;;;44.65;5.57;;;8.20;91.90;;;;;;6234785;23;20556;-64
2022/02/05 07:18:05;;;;;;;49.08;6.55;;;8.30;91.90;;;;;;6206710;23;20103;-59
2022/02/05 07:31:19;;;;;;;37.83;5.47;;;8.20;92.20;;;;;;6213568;23;20157;-63
2022/02/05 07:33:44;;;;;;;48.20;5.35;;;8.20;92.30;;;;;;6157491;23;20007;-60
2022/02/05 07:36:11;;;;;;;38.20;5.65;;;8.20;92.30;;;;;;6206445;23;20012;-60
2022/02/05 07:38:37;;;;;;;37.72;4.78;;;8.20;92.30;;;;;;6206955;23;20628;-64
2022/02/05 07:41:03;;;;;;;53.60;5.00;;;8.10;92.30;;;;;;6236109;23;20011;-61
2022/02/05 07:43:29;;;;;;;43.08;5.72;;;8.10;92.40;;;;;;6209253;23;20004;-63
2022/02/05 07:45:55;;;;;;;39.42;4.30;;;8.10;92.40;;;;;;6157439;23;20437;-59
2022/02/05 07:48:20;;;;;;;35.13;5.18;;;8.10;92.30;;;;;;6182719;23;20008;-62
2022/02/05 07:50:46;;;;;;;28.52;4.78;;;8.10;92.30;;;;;;6234211;23;20333;-63
2022/02/05 07:53:11;;;;;;;29.30;4.93;;;8.10;92.30;;;;;;6236175;23;20038;-63
2022/02/05 07:55:37;;;;;;;33.65;4.65;;;8.10;92.30;;;;;;6235905;23;20038;-63
2022/02/05 07:58:02;;;;;;;26.90;5.00;;;8.10;92.30;;;;;;6235820;23;20012;-61
2022/02/05 08:00:28;;;;;;;37.05;4.80;;;8.10;92.30;;;;;;6233777;23;20012;-61
2022/02/05 08:02:57;;;;;;;38.75;4.97;;;8.10;92.30;;;;;;6235025;23;20028;-64
2022/02/05 08:05:22;;;;;;;27.00;4.40;;;8.10;92.20;;;;;;6232843;23;20000;-61
2022/02/05 08:07:48;;;;;;;22.45;4.47;;;8.00;92.00;;;;;;6235591;23;20004;-63
2022/02/05 08:10:15;;;;;;;25.02;4.10;;;8.00;92.00;;;;;;6235296;23;20004;-60
2022/02/05 08:12:48;;;;;;;37.08;4.72;;;8.00;91.90;;;;;;6234563;23;20008;-61
2022/02/05 08:15:17;;;;;;;51.70;5.45;;;8.00;91.80;;;;;;6233512;23;20016;-63
2022/02/05 08:17:42;;;;;;;33.80;5.45;;;7.90;91.70;;;;;;6207943;23;20012;-64
2022/02/05 08:20:09;;;;;;;38.85;5.18;;;7.90;91.70;;;;;;6208639;23;20019;-59
2022/02/05 08:22:34;;;;;;;18.35;3.95;;;7.90;91.70;;;;;;6209414;23;20075;-61
2022/02/05 08:25:00;;;;;;;22.17;4.55;;;7.90;91.60;;;;;;6234430;23;20456;-62
2022/02/05 08:27:26;;;;;;;25.35;4.00;;;7.90;91.50;;;;;;6234113;23;20443;-61
2022/02/05 08:32:19;;;;;;;21.45;3.92;;;7.80;91.50;;;;;;6235697;23;20016;-61
2022/02/05 08:34:45;;;;;;;32.67;4.35;;;7.80;91.50;;;;;;6235905;23;20031;-62
2022/02/05 08:37:10;;;;;;;20.42;2.97;;;7.80;91.40;;;;;;6207017;23;20031;-63
2022/02/05 08:39:36;;;;;;;11.38;3.40;;;7.80;91.30;;;;;;6206279;23;20421;-63
2022/02/05 08:42:02;;;;;;;18.02;3.53;;;7.80;91.20;;;;;;6206578;23;20004;-64
2022/02/05 08:44:28;;;;;;;19.25;3.78;;;7.70;91.20;;;;;;6206875;23;20330;-61
2022/02/05 08:46:54;;;;;;;17.35;3.13;;;7.70;91.10;;;;;;6206504;23;20000;-65
2022/02/05 08:49:19;;;;;;;16.48;3.10;;;7.70;91.10;;;;;;6233728;23;20073;-60
2022/02/05 08:51:45;;;;;;;25.42;3.35;;;7.70;91.10;;;;;;6182005;23;20000;-63
2022/02/05 08:54:10;;;;;;;16.65;3.33;;;7.70;91.10;;;;;;6203987;23;20004;-63
2022/02/05 08:56:36;;;;;;;9.60;2.55;;;7.60;91.10;;;;;;6179014;23;20098;-62
2022/02/05 08:59:03;;;;;;;9.88;2.72;;;7.70;91.10;;;;;;6204062;23;20015;-63
2022/02/05 09:01:46;;;;;;;13.40;2.78;;;7.60;90.90;;;;;;6207373;23;20115;-63
2022/02/05 09:04:28;;;;;;;11.73;3.13;;;7.60;91.00;;;;;;6207136;23;20014;-63
2022/02/05 09:06:56;;;;;;;12.68;3.00;;;7.60;91.00;;;;;;6228521;23;20020;-61
2022/02/05 09:12:16;;;;;;;9.27;3.33;;;7.60;91.00;;;;;;6205041;23;20020;-61
2022/02/05 09:14:44;;;;;;;13.32;2.30;;;7.60;90.90;;;;;;6211673;23;20107;-61
2022/02/05 09:17:10;;;;;;;13.60;2.33;;;7.60;90.90;;;;;;6205625;23;20333;-60
2022/02/05 09:19:36;;;;;;;14.80;2.50;;;7.60;90.80;;;;;;6203466;23;20639;-63
2022/02/05 09:22:02;;;;;;;8.27;2.65;;;7.60;90.80;;;;;;6230438;23;20008;-63
2022/02/05 09:24:28;;;;;;;14.23;2.53;;;7.50;90.80;;;;;;6181460;23;20077;-61
2022/02/05 09:27:03;;;;;;;9.50;3.28;;;7.60;90.80;;;;;;6230951;23;20421;-63
2022/02/05 09:29:30;;;;;;;19.40;3.77;;;7.60;90.80;;;;;;6230748;23;20000;-60
2022/02/05 09:31:56;;;;;;;21.63;3.63;;;7.60;90.80;;;;;;6233191;23;19997;-60
2022/02/05 09:34:22;;;;;;;28.40;3.65;;;7.50;90.70;;;;;;6206005;23;20007;-61
2022/02/05 09:36:47;;;;;;;28.23;3.92;;;7.50;90.70;;;;;;6205132;23;20000;-63
2022/02/05 09:39:13;;;;;;;20.88;3.65;;;7.50;90.70;;;;;;6205337;23;20008;-62
2022/02/05 09:41:39;;;;;;;24.83;3.83;;;7.50;90.70;;;;;;6233004;23;20396;-60
2022/02/05 09:44:07;;;;;;;28.95;4.10;;;7.50;90.70;;;;;;6205649;23;20008;-62
2022/02/05 09:46:33;;;;;;;25.20;4.88;;;7.50;90.80;;;;;;6205120;23;20032;-62
2022/02/05 09:48:58;;;;;;;30.00;4.95;;;7.60;90.80;;;;;;6178714;23;20521;-62
2022/02/05 09:51:30;;;;;;;28.08;4.75;;;7.60;90.80;;;;;;6204314;23;20008;-61
2022/02/05 09:53:56;;;;;;;37.08;4.82;;;7.60;90.70;;;;;;6181818;23;20000;-63
2022/02/05 09:56:23;;;;;;;47.42;5.32;;;7.60;90.80;;;;;;6208014;23;20346;-62
2022/02/05 09:58:49;;;;;;;42.67;5.97;;;7.60;90.80;;;;;;6206491;23;20032;-63
2022/02/05 10:01:21;;;;;;;54.22;6.03;;;7.60;90.80;;;;;;6206769;23;20763;-63
2022/02/05 10:03:47;;;;;;;33.00;5.20;;;7.60;90.80;;;;;;6182242;23;20697;-62
2022/02/05 10:06:29;;;;;;;58.72;6.75;;;7.70;90.80;;;;;;6154954;23;20058;-61
2022/02/05 10:08:56;;;;;;;68.60;7.32;;;7.70;90.90;;;;;;6204589;23;20437;-64
2022/02/05 10:11:22;;;;;;;68.65;8.95;;;7.70;91.00;;;;;;6208632;23;20427;-61
2022/02/05 10:13:47;;;;;;;83.20;9.68;;;7.70;90.90;;;;;;6205080;23;20005;-64
2022/02/05 10:16:13;;;;;;;77.88;10.05;;;7.70;91.00;;;;;;6208044;23;20103;-63
2022/02/05 10:18:40;;;;;;;64.30;9.57;;;7.70;90.90;;;;;;6181255;23;20916;-62
2022/02/05 10:21:19;;;;;;;79.72;10.27;;;7.70;90.80;;;;;;6204591;23;20000;-63
2022/02/05 10:24:01;;;;;;;96.28;11.80;;;7.80;90.80;;;;;;6207177;23;20430;-63
2022/02/05 10:26:28;;;;;;;112.25;11.60;;;7.80;90.90;;;;;;6231907;23;20047;-63
2022/02/05 10:29:20;;;;;;;80.97;11.82;;;7.80;90.90;;;;;;6177653;23;20108;-63
2022/02/05 10:32:09;;;;;;;102.00;14.35;;;7.80;90.80;;;;;;6225286;23;20406;-61
2022/02/05 10:35:01;;;;;;;99.38;12.77;;;7.80;90.80;;;;;;6185794;23;20437;-63
2022/02/05 10:37:30;;;;;;;120.90;14.75;;;7.80;90.80;;;;;;6186254;23;20095;-62
2022/02/05 10:40:20;;;;;;;120.30;14.68;;;7.80;90.70;;;;;;6233388;23;20004;-62
2022/02/05 10:43:05;;;;;;;104.35;12.02;;;7.80;90.70;;;;;;6187401;23;20006;-63
2022/02/05 10:45:47;;;;;;;110.18;13.93;;;7.80;90.70;;;;;;6232240;23;20027;-62
2022/02/05 10:48:14;;;;;;;125.15;15.10;;;7.90;90.70;;;;;;6207019;23;20499;-63
2022/02/05 10:50:40;;;;;;;130.30;16.55;;;7.90;90.70;;;;;;6203837;23;20069;-64
2022/02/05 10:53:17;;;;;;;132.88;15.63;;;7.90;90.70;;;;;;6204297;23;20155;-65
2022/02/05 11:05:57;;;;;;;145.35;19.92;;;8.00;90.40;;;;;;6233643;23;20114;-64
2022/02/05 11:08:23;;;;;;;159.52;19.42;;;8.00;90.30;;;;;;6205409;23;20000;-61
2022/02/05 11:21:07;;;;;;;164.57;19.45;;;8.00;90.10;;;;;;6207931;23;20023;-62
2022/02/05 11:23:33;;;;;;;180.13;21.73;;;8.00;90.10;;;;;;6229810;23;20008;-64
2022/02/05 11:25:59;;;;;;;139.85;20.35;;;8.00;90.00;;;;;;6206086;23;20012;-59
2022/02/05 11:29:03;;;;;;;170.02;19.50;;;8.00;89.80;;;;;;6207042;23;20000;-61
2022/02/05 11:31:31;;;;;;;168.57;21.42;;;8.00;89.80;;;;;;6231612;23;20082;-61
2022/02/05 11:34:21;;;;;;;156.15;22.42;;;8.00;89.60;;;;;;6231820;23;20007;-60
2022/02/05 11:36:56;;;;;;;175.02;23.02;;;8.00;89.70;;;;;;6230691;23;20000;-63
2022/02/05 11:39:21;;;;;;;214.65;24.33;;;8.00;89.90;;;;;;6231472;23;20004;-60
2022/02/05 11:41:47;;;;;;;181.65;23.98;;;8.00;89.80;;;;;;6204085;23;19997;-61
2022/02/05 11:44:29;;;;;;;205.80;25.98;;;8.00;89.90;;;;;;6152679;23;20008;-60
2022/02/05 11:47:03;;;;;;;207.43;24.95;;;8.00;89.50;;;;;;6182101;23;19996;-62
2022/02/05 11:49:51;;;;;;;166.05;20.42;;;8.00;89.20;;;;;;6231048;23;20055;-62
2022/02/05 11:52:35;;;;;;;224.55;26.70;;;8.00;89.10;;;;;;6232930;23;20004;-61
2022/02/05 11:55:02;;;;;;;181.57;22.85;;;8.00;89.20;;;;;;6234065;23;20001;-62
2022/02/05 11:57:43;;;;;;;185.15;24.10;;;8.00;89.10;;;;;;6157090;23;20409;-59
2022/02/05 12:00:10;;;;;;;198.23;23.30;;;8.00;89.10;;;;;;6229956;23;20007;-59
2022/02/05 12:02:44;;;;;;;176.43;22.83;;;8.00;89.70;;;;;;6204838;23;20004;-62
2022/02/05 12:05:21;;;;;;;152.57;20.55;;;8.00;89.10;;;;;;6204620;23;20012;-60
2022/02/05 12:07:59;;;;;;;173.10;22.05;;;8.00;89.00;;;;;;6204962;23;20083;-59
2022/02/05 12:10:31;;;;;;;157.18;22.38;;;8.00;89.00;;;;;;6233018;23;20389;-63
2022/02/05 12:13:16;;;;;;;164.52;21.33;;;8.00;89.00;;;;;;6205245;23;20058;-62
2022/02/05 12:15:42;;;;;;;185.95;20.13;;;8.00;88.80;;;;;;6230455;23;20004;-59
2022/02/05 12:23:30;;;;;;;134.68;18.85;;;8.00;88.20;;;;;;6232574;23;20024;-59
2022/02/05 12:25:58;;;;;;;110.03;16.83;;;8.00;88.00;;;;;;6182715;23;20000;-61
2022/02/05 12:28:30;;;;;;;145.30;17.27;;;8.10;87.90;;;;;;6231293;23;20047;-59
2022/02/05 12:30:56;;;;;;;114.55;13.85;;;8.00;87.60;;;;;;6232365;23;20007;-59
2022/02/05 12:33:21;;;;;;;139.38;16.52;;;8.00;87.50;;;;;;6231805;23;20000;-60
2022/02/05 12:35:55;;;;;;;111.47;16.23;;;8.00;87.40;;;;;;6181504;23;20053;-60
2022/02/05 12:38:20;;;;;;;143.43;16.67;;;8.00;87.30;;;;;;6233043;23;20058;-59
2022/02/05 12:40:48;;;;;;;101.60;13.55;;;8.00;87.20;;;;;;6180207;23;19996;-59
2022/02/05 12:43:14;;;;;;;92.15;13.65;;;8.00;87.20;;;;;;6229969;23;20150;-62
2022/02/05 12:48:18;;;;;;;98.57;12.57;;;8.00;87.10;;;;;;6183753;23;20018;-60
2022/02/05 12:50:44;;;;;;;95.45;13.52;;;8.00;87.10;;;;;;6179539;23;20008;-60
2022/02/05 12:53:09;;;;;;;97.05;12.15;;;8.00;87.20;;;;;;6177698;23;20022;-60
2022/02/05 12:55:44;;;;;;;102.57;13.43;;;8.10;87.20;;;;;;6230086;23;20059;-60
2022/02/05 12:58:10;;;;;;;75.28;12.20;;;8.00;87.10;;;;;;6207255;23;20039;-60
2022/02/05 13:00:37;;;;;;;84.53;13.30;;;8.00;87.00;;;;;;6180369;23;20000;-61
2022/02/05 13:03:19;;;;;;;89.45;13.70;;;8.00;87.10;;;;;;6232817;23;20096;-62
2022/02/05 13:05:45;;;;;;;86.03;13.45;;;8.10;87.10;;;;;;6207351;23;20026;-60
2022/02/05 13:08:10;;;;;;;119.93;12.98;;;8.00;87.10;;;;;;6229454;23;20079;-62
2022/02/05 13:10:43;;;;;;;124.10;13.80;;;8.10;87.20;;;;;;6230851;23;20019;-60
2022/02/05 13:13:08;;;;;;;86.93;13.10;;;8.10;87.00;;;;;;6231837;23;20000;-59
2022/02/05 13:15:34;;;;;;;115.43;15.45;;;8.10;87.10;;;;;;6202835;23;20011;-62
2022/02/05 13:38:48;;;;;;;99.70;14.18;;;8.40;87.10;;;;;;6180442;23;20018;-59
2022/02/05 13:41:13;;;;;;;97.03;13.75;;;8.30;86.90;;;;;;6184874;23;20169;-62
2022/02/05 13:43:54;;;;;;;102.20;13.73;;;8.30;86.60;;;;;;6200966;23;20508;-62
2022/02/05 13:46:20;;;;;;;83.72;11.70;;;8.30;86.30;;;;;;6228912;23;20441;-60
2022/02/05 13:48:46;;;;;;;73.35;10.88;;;8.30;86.20;;;;;;6231141;23;20008;-59
2022/02/05 13:51:11;;;;;;;79.90;11.48;;;8.30;86.80;;;;;;6232147;23;20015;-62
2022/02/05 13:53:50;;;;;;;76.22;11.40;;;8.30;86.40;;;;;;6233971;23;20377;-62
2022/02/05 13:56:16;;;;;;;89.72;11.57;;;8.30;86.30;;;;;;6181442;23;20106;-59
2022/02/05 13:58:41;;;;;;;94.50;11.30;;;8.30;86.40;;;;;;6179767;23;20490;-60
2022/02/05 14:01:07;;;;;;;84.82;11.30;;;8.30;86.10;;;;;;6229676;23;20232;-60
2022/02/05 14:03:34;;;;;;;74.47;10.35;;;8.30;86.00;;;;;;6232343;23;20035;-60
2022/02/05 14:06:10;;;;;;;78.45;11.60;;;8.30;85.90;;;;;;6178354;23;20054;-58
2022/02/05 14:08:36;;;;;;;61.50;9.57;;;8.30;85.80;;;;;;6203952;23;20008;-62
2022/02/05 14:11:03;;;;;;;69.45;10.18;;;8.30;86.00;;;;;;6198217;23;20000;-63
2022/02/05 14:13:29;;;;;;;78.00;10.57;;;8.30;86.00;;;;;;6228819;23;20008;-61
2022/02/05 14:15:56;;;;;;;73.65;10.77;;;8.30;85.90;;;;;;6200584;23;20131;-63
2022/02/05 14:18:22;;;;;;;73.35;9.45;;;8.30;85.80;;;;;;6226924;23;20008;-62
2022/02/05 14:21:02;;;;;;;86.82;10.48;;;8.30;85.70;;;;;;6201310;23;20004;-62
2022/02/05 14:23:32;;;;;;;76.18;10.00;;;8.40;85.50;;;;;;6226962;23;20000;-61
2022/02/05 14:28:34;;;;;;;142.30;14.73;;;8.40;85.40;;;;;;6203983;23;20453;-60
2022/02/05 14:31:12;;;;;;;86.47;10.98;;;8.40;85.50;;;;;;6206970;23;20282;-62
2022/02/05 14:36:40;;;;;;;107.57;12.45;;;8.50;85.40;;;;;;6207931;23;20065;-62
2022/02/05 14:41:55;;;;;;;110.75;12.98;;;8.50;85.30;;;;;;6190231;23;20019;-62
2022/02/05 14:44:20;;;;;;;91.47;11.60;;;8.50;85.10;;;;;;6205582;23;20000;-61
2022/02/05 14:46:46;;;;;;;105.07;14.05;;;8.60;85.10;;;;;;6206088;23;20182;-61
2022/02/05 14:49:11;;;;;;;122.50;14.50;;;8.60;85.30;;;;;;6234150;23;20079;-62
2022/02/05 14:51:37;;;;;;;112.60;13.23;;;8.60;85.20;;;;;;6205198;23;20342;-60
2022/02/05 14:54:03;;;;;;;129.02;15.13;;;8.60;85.00;;;;;;6204343;23;20551;-60
2022/02/05 14:56:29;;;;;;;120.60;13.50;;;8.70;85.00;;;;;;6198450;23;20035;-59
2022/02/05 14:58:54;;;;;;;134.88;15.23;;;8.70;84.90;;;;;;6174321;23;20008;-61
2022/02/05 15:01:24;;;;;;;121.57;14.88;;;8.70;85.20;;;;;;6202890;23;20307;-61
2022/02/05 15:03:57;;;;;;;139.90;14.68;;;8.70;85.40;;;;;;6201061;23;20027;-63
2022/02/05 15:06:26;;;;;;;105.80;14.50;;;8.70;85.40;;;;;;6201259;23;20023;-60
2022/02/05 15:08:52;;;;;;;144.23;14.80;;;8.70;85.40;;;;;;6201722;23;20316;-61
2022/02/05 15:11:18;;;;;;;94.72;13.32;;;8.70;85.20;;;;;;6201287;23;20031;-60
2022/02/05 15:13:44;;;;;;;126.57;14.73;;;8.70;85.40;;;;;;6202208;23;20039;-62
2022/02/05 15:16:10;;;;;;;108.70;13.80;;;8.70;85.30;;;;;;6174950;23;20019;-61
2022/02/05 15:18:39;;;;;;;108.55;13.23;;;8.70;85.10;;;;;;6201126;23;20027;-60
2022/02/05 15:21:05;;;;;;;113.03;13.40;;;8.70;85.10;;;;;;6152509;23;20012;-60
2022/02/05 15:23:30;;;;;;;126.78;13.52;;;8.70;85.20;;;;;;6201185;23;19997;-58
2022/02/05 15:26:00;;;;;;;135.75;16.38;;;8.70;85.30;;;;;;6153242;23;20001;-59
2022/02/05 15:28:26;;;;;;;123.72;15.30;;;8.70;85.10;;;;;;6203351;23;20454;-61
2022/02/05 15:30:51;;;;;;;111.43;15.70;;;8.80;85.20;;;;;;6203596;23;20005;-59
2022/02/05 15:33:21;;;;;;;127.63;16.83;;;8.80;85.30;;;;;;6176694;23;20015;-60
2022/02/05 15:35:47;;;;;;;107.43;14.23;;;8.80;85.30;;;;;;6178539;23;20012;-59
2022/02/05 15:38:18;;;;;;;117.55;15.20;;;8.80;85.20;;;;;;6147851;23;20102;-61
2022/02/05 15:46:06;;;;;;;133.93;15.50;;;8.90;85.00;;;;;;6204104;23;20013;-60
2022/02/05 15:48:32;;;;;;;112.07;16.15;;;8.90;85.00;;;;;;6178357;23;20012;-60
2022/02/05 15:50:58;;;;;;;117.43;15.13;;;8.90;84.90;;;;;;6204502;23;20009;-60
2022/02/05 15:53:24;;;;;;;123.05;14.63;;;8.90;84.70;;;;;;6204109;23;19996;-59
2022/02/05 15:55:49;;;;;;;114.35;14.18;;;8.90;84.50;;;;;;6210865;23;20016;-59
2022/02/05 15:58:21;;;;;;;111.03;14.80;;;8.90;84.50;;;;;;6207194;23;20000;-62